Time;durP1;ratioP1;P1;durP2;ratioP2;P2;SDS_P1;SDS_P2;PMS_P1;PMS_P2;Temp;Humidity;BMP_temperature;BMP_pressure;BME280_temperature;BME280_humidity;BME280_pressure;Samples;Min_cycle;Max_cycle;Signal;HPM_P1;HPM_P2
2022/07/11 00:01:07;;;;;;;13.88;4.80;;;;;;;;;;5144023;27;20140;-75
2022/07/11 00:03:34;;;;;;;12.02;4.55;;;;;;;;;;5112738;27;20065;-79
2022/07/11 00:06:00;;;;;;;12.50;5.30;;;;;;;;;;5100841;27;20115;-72
2022/07/11 00:08:26;;;;;;;15.38;4.88;;;;;;;;;;5152469;27;20126;-74
2022/07/11 00:10:53;;;;;;;12.43;4.75;;;;;;;;;;5146941;27;20110;-74
2022/07/11 00:13:19;;;;;;;12.98;4.75;;;;;;;;;;5133109;27;20143;-73
2022/07/11 00:15:45;;;;;;;12.77;5.35;;;;;;;;;;5131339;27;20252;-75
2022/07/11 00:18:11;;;;;;;16.63;6.13;;;;;;;;;;5116173;27;20043;-74
2022/07/11 00:20:37;;;;;;;;;;;;;;;;;;5133126;27;20495;-75
2022/07/11 00:23:03;;;;;;;15.55;5.85;;;;;;;;;;5141676;27;19923;-75
2022/07/11 00:25:29;;;;;;;14.60;5.50;;;;;;;;;;5132882;27;20187;-75
2022/07/11 00:27:55;;;;;;;13.27;5.22;;;;;;;;;;5130341;27;20842;-75
2022/07/11 00:30:21;;;;;;;14.00;5.50;;;;;;;;;;5135073;27;20328;-75
2022/07/11 00:32:48;;;;;;;14.13;5.85;;;;;;;;;;5116471;27;20448;-75
2022/07/11 00:35:14;;;;;;;14.05;5.75;;;;;;;;;;5147828;27;20051;-76
2022/07/11 00:37:40;;;;;;;15.35;5.80;;;;;;;;;;5129965;27;20050;-77
2022/07/11 00:40:06;;;;;;;12.73;5.85;;;;;;;;;;5132694;27;20057;-76
2022/07/11 00:42:32;;;;;;;12.00;6.03;;;;;;;;;;5143151;27;20042;-75
2022/07/11 00:44:58;;;;;;;12.52;5.22;;;;;;;;;;5132093;27;20107;-75
2022/07/11 00:47:24;;;;;;;10.93;5.20;;;;;;;;;;5129627;27;20110;-72
2022/07/11 00:49:51;;;;;;;14.38;5.30;;;;;;;;;;5150022;27;20064;-74
2022/07/11 00:52:17;;;;;;;12.10;5.32;;;;;;;;;;5110996;27;20276;-75
2022/07/11 00:54:43;;;;;;;;;;;;;;;;;;5120634;27;20151;-76
2022/07/11 00:57:09;;;;;;;11.55;5.38;;;;;;;;;;5111411;27;19927;-76
2022/07/11 00:59:35;;;;;;;10.68;5.32;;;;;;;;;;5130724;27;20043;-75
2022/07/11 01:02:04;;;;;;;11.50;5.25;;;;;;;;;;5140301;27;20039;-76
2022/07/11 01:04:30;;;;;;;13.05;5.40;;;;;;;;;;5135067;27;20055;-75
2022/07/11 01:06:56;;;;;;;12.00;5.53;;;;;;;;;;5128956;27;20039;-75
2022/07/11 01:09:22;;;;;;;11.35;4.93;;;;;;;;;;5132565;27;20105;-77
2022/07/11 01:11:48;;;;;;;13.68;5.47;;;;;;;;;;5125404;27;20179;-76
2022/07/11 01:14:14;;;;;;;;;;;;;;;;;;5131118;27;20107;-76
2022/07/11 01:16:40;;;;;;;12.80;4.72;;;;;;;;;;5133343;27;20347;-76
2022/07/11 01:19:06;;;;;;;11.93;5.18;;;;;;;;;;5131806;27;20050;-75
2022/07/11 01:21:38;;;;;;;12.52;5.00;;;;;;;;;;5129429;27;20043;-75
2022/07/11 01:24:05;;;;;;;13.18;5.55;;;;;;;;;;5129573;27;20054;-74
2022/07/11 01:26:35;;;;;;;12.80;5.22;;;;;;;;;;5136215;27;20051;-76
2022/07/11 01:29:11;;;;;;;15.70;5.78;;;;;;;;;;5129519;27;20498;-76
2022/07/11 01:31:40;;;;;;;13.20;5.60;;;;;;;;;;5133654;27;20054;-75
2022/07/11 01:34:06;;;;;;;15.55;5.55;;;;;;;;;;5150257;27;20089;-75
2022/07/11 01:36:32;;;;;;;12.60;5.53;;;;;;;;;;5142518;27;20150;-76
2022/07/11 01:38:59;;;;;;;11.55;5.60;;;;;;;;;;5129550;27;20058;-75
2022/07/11 01:41:25;;;;;;;14.25;5.70;;;;;;;;;;5111317;27;20384;-75
2022/07/11 01:43:51;;;;;;;12.43;6.45;;;;;;;;;;5132665;27;20038;-76
2022/07/11 01:46:18;;;;;;;;;;;;;;;;;;5144147;27;20114;-76
2022/07/11 01:48:44;;;;;;;12.45;6.07;;;;;;;;;;5112407;27;19970;-76
2022/07/11 01:51:10;;;;;;;13.40;6.10;;;;;;;;;;5148145;27;20050;-75
2022/07/11 01:53:37;;;;;;;13.43;6.85;;;;;;;;;;5115714;27;20073;-75
2022/07/11 01:56:03;;;;;;;;;;;;;;;;;;5147001;27;20097;-76
2022/07/11 01:58:30;;;;;;;15.75;6.70;;;;;;;;;;5129361;27;20362;-75
2022/07/11 02:01:10;;;;;;;11.27;6.38;;;;;;;;;;5105877;27;20610;-74
2022/07/11 02:03:37;;;;;;;;;;;;;;;;;;5091486;28;20127;-74
2022/07/11 02:06:03;;;;;;;13.73;5.80;;;;;;;;;;5085433;28;20094;-74
2022/07/11 02:08:29;;;;;;;12.52;5.30;;;;;;;;;;5088302;28;20074;-74
2022/07/11 02:10:55;;;;;;;14.60;5.50;;;;;;;;;;5085335;28;20071;-74
2022/07/11 02:13:25;;;;;;;13.30;5.30;;;;;;;;;;5085004;28;20036;-73
2022/07/11 02:15:53;;;;;;;13.00;5.00;;;;;;;;;;5094485;28;20422;-78
2022/07/11 02:18:19;;;;;;;13.10;4.93;;;;;;;;;;5101474;28;20060;-74
2022/07/11 02:20:45;;;;;;;14.25;5.32;;;;;;;;;;5100171;28;20131;-74
2022/07/11 02:23:12;;;;;;;13.10;5.32;;;;;;;;;;5094638;28;20116;-74
2022/07/11 02:25:39;;;;;;;11.52;5.13;;;;;;;;;;5085344;28;20111;-74
2022/07/11 02:28:09;;;;;;;12.07;4.97;;;;;;;;;;5085822;28;20054;-74
2022/07/11 02:30:35;;;;;;;14.63;5.40;;;;;;;;;;5085371;28;20040;-73
2022/07/11 02:33:01;;;;;;;12.32;5.22;;;;;;;;;;5084551;28;20047;-74
2022/07/11 02:35:27;;;;;;;14.48;5.45;;;;;;;;;;5098066;28;20108;-74
2022/07/11 02:37:53;;;;;;;15.07;5.60;;;;;;;;;;5085205;28;20514;-78
2022/07/11 02:40:19;;;;;;;14.48;6.20;;;;;;;;;;5091413;28;20055;-75
2022/07/11 02:42:45;;;;;;;14.85;5.75;;;;;;;;;;5105332;28;20079;-74
2022/07/11 02:45:12;;;;;;;14.25;5.88;;;;;;;;;;5100270;28;20067;-74
2022/07/11 02:47:39;;;;;;;13.02;5.32;;;;;;;;;;5102588;28;20404;-76
2022/07/11 02:50:09;;;;;;;14.73;6.00;;;;;;;;;;5101165;28;20044;-73
2022/07/11 02:52:36;;;;;;;13.55;5.70;;;;;;;;;;5084697;28;20045;-73
2022/07/11 02:55:02;;;;;;;13.32;5.20;;;;;;;;;;5083480;28;20055;-74
2022/07/11 02:57:28;;;;;;;;;;;;;;;;;;5099587;28;20463;-74
2022/07/11 02:59:54;;;;;;;13.40;5.45;;;;;;;;;;5084112;28;19921;-74
2022/07/11 03:02:20;;;;;;;12.23;5.40;;;;;;;;;;5086444;28;20056;-74
2022/07/11 03:04:46;;;;;;;12.55;5.05;;;;;;;;;;5099558;28;20052;-76
2022/07/11 03:07:12;;;;;;;;;;;;;;;;;;5083764;28;20082;-74
2022/07/11 03:09:38;;;;;;;14.75;4.90;;;;;;;;;;5084976;28;20313;-74
2022/07/11 03:12:05;;;;;;;12.65;4.70;;;;;;;;;;5077905;28;20162;-74
2022/07/11 03:14:31;;;;;;;12.63;4.53;;;;;;;;;;5071142;28;20112;-75
2022/07/11 03:16:57;;;;;;;12.15;4.45;;;;;;;;;;5080024;28;20044;-75
2022/07/11 03:19:23;;;;;;;10.98;4.35;;;;;;;;;;5052264;28;20131;-74
2022/07/11 03:21:49;;;;;;;17.20;4.35;;;;;;;;;;5070388;28;20116;-76
2022/07/11 03:24:15;;;;;;;12.45;4.13;;;;;;;;;;5070970;28;20060;-75
2022/07/11 03:26:41;;;;;;;11.38;4.30;;;;;;;;;;5069115;28;20052;-79
2022/07/11 03:29:08;;;;;;;11.25;4.28;;;;;;;;;;5088218;28;20044;-76
2022/07/11 03:31:34;;;;;;;11.95;4.05;;;;;;;;;;5089474;28;20104;-75
2022/07/11 03:34:01;;;;;;;9.85;3.08;;;;;;;;;;5076910;28;20055;-77
2022/07/11 03:36:27;;;;;;;9.27;3.53;;;;;;;;;;5080560;28;20044;-72
2022/07/11 03:38:53;;;;;;;10.23;3.28;;;;;;;;;;5077117;28;20040;-74
2022/07/11 03:41:19;;;;;;;11.05;3.00;;;;;;;;;;5087549;28;20054;-76
2022/07/11 03:43:45;;;;;;;10.95;3.30;;;;;;;;;;5079301;28;20404;-75
2022/07/11 03:46:12;;;;;;;9.82;3.28;;;;;;;;;;5074103;28;20196;-77
2022/07/11 03:48:38;;;;;;;11.95;3.78;;;;;;;;;;5088182;28;20105;-76
2022/07/11 03:51:04;;;;;;;10.70;3.30;;;;;;;;;;5082658;28;20052;-79
2022/07/11 03:53:31;;;;;;;9.57;3.20;;;;;;;;;;5068226;28;20518;-76
2022/07/11 03:55:57;;;;;;;10.15;3.08;;;;;;;;;;5103923;28;20052;-75
2022/07/11 03:58:23;;;;;;;9.63;3.25;;;;;;;;;;5087708;28;20051;-76
2022/07/11 04:00:49;;;;;;;10.07;3.10;;;;;;;;;;5075398;28;20059;-75
2022/07/11 04:03:15;;;;;;;9.88;3.30;;;;;;;;;;5066916;28;20040;-76
2022/07/11 04:05:41;;;;;;;9.60;3.17;;;;;;;;;;5069190;28;20127;-76
2022/07/11 04:08:07;;;;;;;11.60;3.90;;;;;;;;;;5066315;28;20048;-79
2022/07/11 04:10:33;;;;;;;12.27;3.70;;;;;;;;;;5068790;28;20124;-75
2022/07/11 04:12:59;;;;;;;9.70;3.45;;;;;;;;;;5084657;28;20453;-76
2022/07/11 04:15:25;;;;;;;10.02;3.00;;;;;;;;;;5083112;28;20122;-74
2022/07/11 04:17:51;;;;;;;11.60;3.55;;;;;;;;;;5073895;28;20101;-74
2022/07/11 04:20:17;;;;;;;10.93;3.75;;;;;;;;;;5068125;28;20124;-77
2022/07/11 04:22:43;;;;;;;11.68;3.25;;;;;;;;;;5113416;27;20048;-75
2022/07/11 04:25:09;;;;;;;11.50;3.80;;;;;;;;;;5087016;28;20372;-80
2022/07/11 04:27:35;;;;;;;10.75;3.05;;;;;;;;;;5082683;28;20508;-75
2022/07/11 04:30:01;;;;;;;10.55;3.83;;;;;;;;;;5082918;28;20120;-75
2022/07/11 04:32:27;;;;;;;12.48;3.88;;;;;;;;;;5066841;28;20131;-76
2022/07/11 04:34:54;;;;;;;11.75;3.70;;;;;;;;;;5068613;28;20056;-76
2022/07/11 04:37:20;;;;;;;10.63;3.35;;;;;;;;;;5083107;28;20433;-75
2022/07/11 04:39:47;;;;;;;8.65;3.00;;;;;;;;;;5086460;28;20048;-72
2022/07/11 04:42:14;;;;;;;10.32;3.20;;;;;;;;;;5075912;28;20482;-76
2022/07/11 04:44:41;;;;;;;;;;;;;;;;;;5069788;28;20143;-73
2022/07/11 04:47:07;;;;;;;9.52;2.70;;;;;;;;;;5068780;28;19927;-70
2022/07/11 04:49:33;;;;;;;7.45;2.10;;;;;;;;;;5087473;28;20040;-74
2022/07/11 04:52:00;;;;;;;6.70;2.50;;;;;;;;;;5083287;28;20364;-75
2022/07/11 04:54:26;;;;;;;7.35;2.28;;;;;;;;;;5084910;28;20122;-75
2022/07/11 04:56:52;;;;;;;7.70;2.20;;;;;;;;;;5084616;28;20102;-75
2022/07/11 04:59:18;;;;;;;9.35;2.63;;;;;;;;;;5077429;28;20072;-75
2022/07/11 05:01:44;;;;;;;8.05;2.10;;;;;;;;;;5086006;28;20044;-76
2022/07/11 05:04:10;;;;;;;9.00;2.28;;;;;;;;;;5067880;28;20049;-75
2022/07/11 05:06:36;;;;;;;6.72;2.05;;;;;;;;;;5076816;28;20059;-76
2022/07/11 05:09:04;;;;;;;5.97;2.10;;;;;;;;;;5067921;28;20067;-75
2022/07/11 05:11:30;;;;;;;7.45;2.15;;;;;;;;;;5068927;28;20362;-75
2022/07/11 05:13:56;;;;;;;6.25;2.33;;;;;;;;;;5067499;28;20457;-75
2022/07/11 05:16:22;;;;;;;;;;;;;;;;;;5075343;28;20364;-76
2022/07/11 05:18:48;;;;;;;7.40;2.28;;;;;;;;;;5083238;28;19935;-75
2022/07/11 05:21:14;;;;;;;9.23;2.60;;;;;;;;;;5073346;28;20045;-75
2022/07/11 05:23:40;;;;;;;8.85;2.22;;;;;;;;;;5076295;28;20074;-77
2022/07/11 05:26:07;;;;;;;9.73;2.20;;;;;;;;;;5068043;28;20093;-76
2022/07/11 05:28:33;;;;;;;9.23;2.40;;;;;;;;;;5067182;28;20049;-72
2022/07/11 05:30:59;;;;;;;7.78;2.30;;;;;;;;;;5080943;28;20131;-74
2022/07/11 05:33:25;;;;;;;6.45;1.88;;;;;;;;;;5086034;28;20040;-73
2022/07/11 05:35:51;;;;;;;9.57;2.13;;;;;;;;;;5080581;28;20134;-73
2022/07/11 05:38:17;;;;;;;5.57;1.75;;;;;;;;;;5072013;28;20517;-77
2022/07/11 05:40:43;;;;;;;6.32;2.00;;;;;;;;;;5068639;28;20048;-74
2022/07/11 05:43:10;;;;;;;8.38;1.95;;;;;;;;;;5080708;28;20043;-73
2022/07/11 05:45:37;;;;;;;6.88;2.00;;;;;;;;;;5082821;28;20059;-73
2022/07/11 05:48:03;;;;;;;9.18;2.30;;;;;;;;;;5070184;28;20060;-73
2022/07/11 05:50:29;;;;;;;8.23;2.40;;;;;;;;;;5074385;28;20040;-72
2022/07/11 05:52:57;;;;;;;5.35;2.00;;;;;;;;;;5082793;28;20073;-73
2022/07/11 05:55:23;;;;;;;6.80;2.28;;;;;;;;;;5071544;28;20487;-75
2022/07/11 05:57:49;;;;;;;6.45;2.08;;;;;;;;;;5081609;28;20048;-73
2022/07/11 06:00:15;;;;;;;5.68;2.20;;;;;;;;;;5071861;28;20159;-73
2022/07/11 06:02:44;;;;;;;;;;;;;;;;;;5079106;28;20048;-73
2022/07/11 06:05:11;;;;;;;10.02;1.92;;;;;;;;;;5065564;28;20386;-73
2022/07/11 06:10:23;;;;;;;7.53;2.08;;;;;;;;;;5076873;28;20064;-75
2022/07/11 06:12:49;;;;;;;;;;;;;;;;;;5072230;28;20202;-73
2022/07/11 06:15:15;;;;;;;6.80;2.00;;;;;;;;;;5068525;28;20015;-73
2022/07/11 06:17:41;;;;;;;8.02;2.00;;;;;;;;;;5075698;28;20048;-76
2022/07/11 06:20:08;;;;;;;5.97;2.08;;;;;;;;;;5070077;28;20202;-75
2022/07/11 06:22:34;;;;;;;6.32;2.13;;;;;;;;;;5114795;28;20123;-74
2022/07/11 06:25:00;;;;;;;7.03;1.98;;;;;;;;;;5064232;28;20121;-75
2022/07/11 06:27:26;;;;;;;8.20;2.10;;;;;;;;;;5078815;28;20048;-76
2022/07/11 06:29:52;;;;;;;6.97;1.90;;;;;;;;;;5081535;28;20128;-75
2022/07/11 06:32:18;;;;;;;6.63;1.90;;;;;;;;;;5074251;28;20044;-73
2022/07/11 06:34:44;;;;;;;5.80;1.80;;;;;;;;;;5080552;28;20097;-74
2022/07/11 06:37:16;;;;;;;;;;;;;;;;;;5068837;28;20048;-73
2022/07/11 06:39:42;;;;;;;5.07;1.52;;;;;;;;;;5066016;28;20042;-74
2022/07/11 06:42:08;;;;;;;3.90;1.70;;;;;;;;;;5069514;28;20041;-72
2022/07/11 06:44:35;;;;;;;4.60;1.73;;;;;;;;;;5065774;28;20056;-72
2022/07/11 06:47:01;;;;;;;5.82;1.60;;;;;;;;;;5066825;28;20053;-74
2022/07/11 06:49:27;;;;;;;4.35;1.50;;;;;;;;;;5082006;28;20040;-72
2022/07/11 06:51:53;;;;;;;5.57;1.70;;;;;;;;;;5072615;28;20056;-72
2022/07/11 06:54:19;;;;;;;6.57;1.75;;;;;;;;;;5078645;28;20036;-74
2022/07/11 06:56:45;;;;;;;7.05;1.58;;;;;;;;;;5083068;28;20063;-73
2022/07/11 06:59:11;;;;;;;4.90;1.77;;;;;;;;;;5078502;28;20048;-73
2022/07/11 07:01:37;;;;;;;5.32;1.70;;;;;;;;;;5081805;28;20098;-74
2022/07/11 07:04:03;;;;;;;5.50;1.90;;;;;;;;;;5090694;28;20051;-73
2022/07/11 07:06:29;;;;;;;5.65;2.00;;;;;;;;;;5064147;28;20186;-72
2022/07/11 07:08:55;;;;;;;5.55;2.05;;;;;;;;;;5069216;28;20063;-73
2022/07/11 07:11:21;;;;;;;5.82;1.77;;;;;;;;;;5069944;28;20055;-75
2022/07/11 07:13:49;;;;;;;8.02;2.22;;;;;;;;;;5068558;28;20373;-73
2022/07/11 07:16:15;;;;;;;7.50;2.13;;;;;;;;;;5069557;28;20123;-72
2022/07/11 07:18:45;;;;;;;;;;;;;;;;;;5080111;28;20122;-72
2022/07/11 07:21:11;;;;;;;7.72;2.20;;;;;;;;;;5089621;28;20018;-72
2022/07/11 07:23:37;;;;;;;;;;;;;;;;;;5070709;28;20055;-72
2022/07/11 07:26:03;;;;;;;7.30;2.20;;;;;;;;;;5088322;28;20019;-73
2022/07/11 07:28:30;;;;;;;6.43;1.98;;;;;;;;;;5088798;28;20079;-73
2022/07/11 07:30:57;;;;;;;5.00;1.70;;;;;;;;;;5080771;28;20539;-72
2022/07/11 07:33:23;;;;;;;;;;;;;;;;;;5088410;28;20399;-72
2022/07/11 07:35:49;;;;;;;5.45;2.00;;;;;;;;;;5080888;28;20264;-70
2022/07/11 07:38:15;;;;;;;5.85;1.98;;;;;;;;;;5070048;28;20124;-74
2022/07/11 07:40:41;;;;;;;5.10;1.80;;;;;;;;;;5070189;28;20198;-74
2022/07/11 07:43:07;;;;;;;8.23;2.17;;;;;;;;;;5089908;28;20119;-74
2022/07/11 07:45:33;;;;;;;5.97;1.90;;;;;;;;;;5089789;28;20044;-72
2022/07/11 07:48:02;;;;;;;7.13;2.47;;;;;;;;;;5063142;28;20139;-73
2022/07/11 07:50:28;;;;;;;6.68;2.20;;;;;;;;;;5088670;28;20058;-72
2022/07/11 07:52:54;;;;;;;;;;;;;;;;;;5090806;28;20448;-69
2022/07/11 07:55:20;;;;;;;4.93;1.70;;;;;;;;;;5089921;28;19920;-73
2022/07/11 07:57:46;;;;;;;4.75;1.73;;;;;;;;;;5083315;28;20102;-73
2022/07/11 08:03:03;;;;;;;4.40;1.50;;;;;;;;;;5089010;28;20052;-74
2022/07/11 08:05:29;;;;;;;3.45;1.42;;;;;;;;;;5089537;28;20148;-74
2022/07/11 08:07:55;;;;;;;3.78;1.58;;;;;;;;;;5087111;28;20313;-70
2022/07/11 08:10:21;;;;;;;4.13;1.67;;;;;;;;;;5082909;28;20046;-73
2022/07/11 08:12:48;;;;;;;3.53;1.30;;;;;;;;;;5089233;28;20044;-71
2022/07/11 08:15:14;;;;;;;4.65;1.40;;;;;;;;;;5089591;28;20044;-73
2022/07/11 08:17:41;;;;;;;5.25;1.58;;;;;;;;;;5087315;28;20048;-73
2022/07/11 08:20:08;;;;;;;4.55;1.52;;;;;;;;;;5074646;28;20425;-73
2022/07/11 08:22:34;;;;;;;3.67;1.50;;;;;;;;;;5067501;28;20151;-73
2022/07/11 08:25:00;;;;;;;3.35;1.27;;;;;;;;;;5068962;28;20044;-73
2022/07/11 08:27:27;;;;;;;2.65;1.30;;;;;;;;;;5069118;28;20135;-73
2022/07/11 08:29:52;;;;;;;;;;;;;;;;;;5068526;28;20141;-70
2022/07/11 08:32:19;;;;;;;6.95;1.55;;;;;;;;;;5068739;28;20087;-71
2022/07/11 08:34:46;;;;;;;2.63;1.08;;;;;;;;;;5083698;28;20244;-71
2022/07/11 08:37:12;;;;;;;2.55;1.30;;;;;;;;;;5084214;28;20116;-71
2022/07/11 08:39:38;;;;;;;2.60;1.20;;;;;;;;;;5066569;28;20119;-73
2022/07/11 08:42:04;;;;;;;2.05;1.13;;;;;;;;;;5066730;28;20055;-71
2022/07/11 08:44:30;;;;;;;4.30;1.52;;;;;;;;;;5068690;28;20041;-72
2022/07/11 08:46:56;;;;;;;;;;;;;;;;;;5068824;28;20048;-73
2022/07/11 08:49:23;;;;;;;2.75;1.20;;;;;;;;;;5069557;28;20263;-71
2022/07/11 08:51:49;;;;;;;1.98;1.15;;;;;;;;;;5067463;28;20138;-71
2022/07/11 08:54:15;;;;;;;1.45;0.95;;;;;;;;;;5068113;28;20044;-67
2022/07/11 08:56:45;;;;;;;3.03;1.30;;;;;;;;;;5067835;28;20440;-68
2022/07/11 08:59:13;;;;;;;1.30;1.00;;;;;;;;;;5067720;28;20151;-70
2022/07/11 09:01:41;;;;;;;2.90;1.02;;;;;;;;;;5075380;28;20068;-68
2022/07/11 09:04:08;;;;;;;3.72;1.20;;;;;;;;;;5087616;28;20052;-70
2022/07/11 09:06:35;;;;;;;2.63;1.00;;;;;;;;;;5087984;28;20048;-70
2022/07/11 09:09:02;;;;;;;1.38;1.08;;;;;;;;;;5087601;28;20139;-72
2022/07/11 09:11:28;;;;;;;2.17;1.10;;;;;;;;;;5079530;28;20059;-67
2022/07/11 09:13:54;;;;;;;1.88;1.10;;;;;;;;;;5067129;28;20136;-69
2022/07/11 09:16:20;;;;;;;3.15;1.55;;;;;;;;;;5067438;28;20190;-69
2022/07/11 09:18:46;;;;;;;2.92;1.10;;;;;;;;;;5067403;28;20044;-74
2022/07/11 09:26:45;;;;;;;1.60;1.00;;;;;;;;;;5082154;28;20113;-71
2022/07/11 09:29:12;;;;;;;3.63;1.17;;;;;;;;;;5066938;28;20193;-66
2022/07/11 09:31:40;;;;;;;3.90;1.20;;;;;;;;;;5065757;28;20139;-70
2022/07/11 09:34:06;;;;;;;2.53;1.10;;;;;;;;;;5066838;28;20062;-70
2022/07/11 09:36:32;;;;;;;;;;;;;;;;;;5067850;28;20099;-69
2022/07/11 09:38:58;;;;;;;2.40;1.15;;;;;;;;;;5074538;28;19996;-69
2022/07/11 09:41:25;;;;;;;2.38;1.20;;;;;;;;;;5087239;28;20097;-70
2022/07/11 09:43:51;;;;;;;2.67;1.10;;;;;;;;;;5087579;28;20069;-67
2022/07/11 09:46:24;;;;;;;1.92;1.20;;;;;;;;;;5088295;28;20044;-70
2022/07/11 09:48:51;;;;;;;3.58;1.30;;;;;;;;;;5072459;28;20227;-73
2022/07/11 09:51:20;;;;;;;5.18;1.48;;;;;;;;;;5067087;28;20123;-70
2022/07/11 09:53:56;;;;;;;3.22;1.30;;;;;;;;;;5066818;28;20130;-69
2022/07/11 09:56:35;;;;;;;2.25;1.23;;;;;;;;;;5067173;28;20060;-71
2022/07/11 09:59:02;;;;;;;4.15;1.40;;;;;;;;;;5077818;28;20120;-71
2022/07/11 10:01:29;;;;;;;3.88;1.48;;;;;;;;;;5079164;28;20079;-70
2022/07/11 10:03:55;;;;;;;2.92;1.25;;;;;;;;;;5066497;28;20118;-70
2022/07/11 10:06:22;;;;;;;2.55;1.30;;;;;;;;;;5066611;28;20132;-69
2022/07/11 10:08:48;;;;;;;3.63;1.20;;;;;;;;;;5067351;28;20059;-68
2022/07/11 10:11:15;;;;;;;2.83;1.20;;;;;;;;;;5066282;28;20048;-72
2022/07/11 10:13:42;;;;;;;3.83;1.40;;;;;;;;;;5067234;28;20127;-70
2022/07/11 10:16:28;;;;;;;6.65;1.67;;;;;;;;;;5067495;28;20048;-69
2022/07/11 10:19:00;;;;;;;4.53;1.50;;;;;;;;;;5072772;28;20089;-74
2022/07/11 10:21:32;;;;;;;6.40;1.58;;;;;;;;;;5081986;28;20314;-70
2022/07/11 10:24:08;;;;;;;3.97;1.40;;;;;;;;;;5081566;28;20036;-71
2022/07/11 10:26:41;;;;;;;6.40;1.50;;;;;;;;;;5091364;28;20062;-70
2022/07/11 10:29:14;;;;;;;2.42;1.40;;;;;;;;;;5090443;28;20113;-70
2022/07/11 10:31:40;;;;;;;4.57;1.50;;;;;;;;;;5087475;28;20459;-71
2022/07/11 10:34:06;;;;;;;3.72;1.60;;;;;;;;;;5078962;28;20052;-72
2022/07/11 10:36:34;;;;;;;4.60;1.52;;;;;;;;;;5081534;28;20056;-69
2022/07/11 10:39:13;;;;;;;5.65;1.83;;;;;;;;;;5072340;28;20072;-70
2022/07/11 10:41:39;;;;;;;3.28;1.77;;;;;;;;;;5083668;28;20044;-70
2022/07/11 10:44:05;;;;;;;3.72;1.50;;;;;;;;;;5087458;28;20127;-70
2022/07/11 10:46:32;;;;;;;5.10;2.10;;;;;;;;;;5088975;28;20040;-68
2022/07/11 10:49:19;;;;;;;7.13;1.90;;;;;;;;;;5088109;28;20091;-69
2022/07/11 10:51:45;;;;;;;4.68;1.90;;;;;;;;;;5085279;28;20481;-72
2022/07/11 10:54:12;;;;;;;;;;;;;;;;;;5086491;28;20118;-69
2022/07/11 10:56:52;;;;;;;4.30;1.85;;;;;;;;;;5087734;28;19935;-70
2022/07/11 10:59:19;;;;;;;6.80;1.70;;;;;;;;;;5086218;28;20040;-70
2022/07/11 11:02:04;;;;;;;3.20;1.75;;;;;;;;;;5084587;28;20109;-72
2022/07/11 11:04:49;;;;;;;4.65;1.70;;;;;;;;;;5087546;28;20124;-71
2022/07/11 11:07:35;;;;;;;3.50;1.50;;;;;;;;;;5087928;28;20055;-69
2022/07/11 11:10:02;;;;;;;3.13;1.40;;;;;;;;;;5083104;28;20096;-73
2022/07/11 11:12:46;;;;;;;3.88;1.48;;;;;;;;;;5089759;28;20509;-71
2022/07/11 11:15:31;;;;;;;3.60;1.60;;;;;;;;;;5083970;28;20051;-69
2022/07/11 11:17:57;;;;;;;6.00;1.55;;;;;;;;;;5088966;28;20524;-69
2022/07/11 11:20:23;;;;;;;;;;;;;;;;;;5072471;28;20072;-69
2022/07/11 11:23:08;;;;;;;3.08;1.38;;;;;;;;;;5090754;28;19951;-69
2022/07/11 11:25:34;;;;;;;3.13;1.33;;;;;;;;;;5082342;28;20044;-70
2022/07/11 11:28:04;;;;;;;3.50;1.20;;;;;;;;;;5070586;28;20341;-68
2022/07/11 11:30:33;;;;;;;4.13;1.40;;;;;;;;;;5070493;28;20106;-68
2022/07/11 11:32:59;;;;;;;2.63;1.38;;;;;;;;;;5068478;28;20168;-69
2022/07/11 11:35:26;;;;;;;2.90;1.50;;;;;;;;;;5067466;28;20048;-71
2022/07/11 11:37:52;;;;;;;1.98;1.30;;;;;;;;;;5077505;28;20052;-70
2022/07/11 11:40:18;;;;;;;2.58;1.50;;;;;;;;;;5069740;28;20135;-69
2022/07/11 11:42:46;;;;;;;2.90;1.35;;;;;;;;;;5084236;28;20084;-70
2022/07/11 11:45:12;;;;;;;2.78;1.50;;;;;;;;;;5078336;28;20056;-69
2022/07/11 11:47:47;;;;;;;3.45;1.48;;;;;;;;;;5080518;28;20055;-73
2022/07/11 11:50:13;;;;;;;4.78;1.90;;;;;;;;;;5081242;28;20047;-69
2022/07/11 11:52:39;;;;;;;5.22;1.80;;;;;;;;;;5081633;28;20188;-69
2022/07/11 11:55:06;;;;;;;;;;;;;;;;;;5077537;28;20456;-69
2022/07/11 11:57:32;;;;;;;5.32;1.90;;;;;;;;;;5077844;28;19919;-69
2022/07/11 11:59:58;;;;;;;4.63;1.80;;;;;;;;;;5074463;28;20391;-70
2022/07/11 12:02:25;;;;;;;3.15;1.42;;;;;;;;;;5079281;28;20396;-70
2022/07/11 12:04:51;;;;;;;3.97;1.88;;;;;;;;;;5080504;28;20558;-68
2022/07/11 12:07:27;;;;;;;5.75;1.83;;;;;;;;;;5078261;28;20082;-69
2022/07/11 12:09:55;;;;;;;3.15;1.60;;;;;;;;;;5075481;28;20052;-69
2022/07/11 12:15:08;;;;;;;6.05;1.70;;;;;;;;;;5082350;28;20403;-70
2022/07/11 12:17:35;;;;;;;6.93;1.70;;;;;;;;;;5075435;28;20832;-71
2022/07/11 12:20:01;;;;;;;3.42;1.60;;;;;;;;;;5101442;27;20056;-70
2022/07/11 12:22:27;;;;;;;5.45;1.50;;;;;;;;;;5075924;28;20127;-70
2022/07/11 12:24:54;;;;;;;4.68;1.52;;;;;;;;;;5066429;28;20051;-69
2022/07/11 12:27:20;;;;;;;4.25;1.65;;;;;;;;;;5081193;28;20161;-70
2022/07/11 12:29:50;;;;;;;2.55;1.58;;;;;;;;;;5076286;28;20051;-69
2022/07/11 12:32:17;;;;;;;3.75;1.40;;;;;;;;;;5079188;28;20144;-71
2022/07/11 12:34:44;;;;;;;3.15;1.60;;;;;;;;;;5077589;28;20070;-69
2022/07/11 12:37:14;;;;;;;3.47;1.50;;;;;;;;;;5079303;28;20143;-69
2022/07/11 12:39:51;;;;;;;4.85;1.60;;;;;;;;;;5071901;28;20063;-69
2022/07/11 12:42:24;;;;;;;4.22;1.70;;;;;;;;;;5075140;28;20253;-71
2022/07/11 12:45:10;;;;;;;5.13;1.70;;;;;;;;;;5076155;28;20095;-71
2022/07/11 12:47:40;;;;;;;4.68;1.60;;;;;;;;;;5074065;28;20040;-72
2022/07/11 12:50:13;;;;;;;3.45;1.50;;;;;;;;;;5071516;28;20055;-72
2022/07/11 12:52:40;;;;;;;2.90;1.50;;;;;;;;;;5073918;28;20123;-72
2022/07/11 12:55:07;;;;;;;4.18;1.60;;;;;;;;;;5069098;28;20101;-73
2022/07/11 12:57:34;;;;;;;5.88;1.75;;;;;;;;;;5074912;28;20953;-71
2022/07/11 13:00:20;;;;;;;3.20;1.63;;;;;;;;;;5073410;28;20373;-73
2022/07/11 13:02:52;;;;;;;4.15;1.80;;;;;;;;;;5071525;28;20044;-69
2022/07/11 13:05:19;;;;;;;4.28;1.70;;;;;;;;;;5073310;28;20123;-69
2022/07/11 13:10:50;;;;;;;4.80;1.98;;;;;;;;;;5088508;28;20109;-70
2022/07/11 13:13:17;;;;;;;5.05;2.05;;;;;;;;;;5088325;28;20050;-71
2022/07/11 13:15:43;;;;;;;4.47;1.75;;;;;;;;;;5088012;28;20060;-68
2022/07/11 13:18:09;;;;;;;;;;;;;;;;;;5088724;28;20052;-70
2022/07/11 13:20:37;;;;;;;6.10;1.95;;;;;;;;;;5070557;28;19927;-70
2022/07/11 13:23:03;;;;;;;3.10;1.70;;;;;;;;;;5067839;28;20053;-67
2022/07/11 13:25:29;;;;;;;5.88;1.85;;;;;;;;;;5067065;28;20377;-68
2022/07/11 13:27:56;;;;;;;5.28;2.00;;;;;;;;;;5067610;28;20053;-68
2022/07/11 13:30:26;;;;;;;3.95;1.95;;;;;;;;;;5068321;28;20123;-68
2022/07/11 13:32:52;;;;;;;4.18;2.00;;;;;;;;;;5087509;28;20090;-70
2022/07/11 13:35:19;;;;;;;4.68;2.00;;;;;;;;;;5077316;28;20124;-67
2022/07/11 13:37:46;;;;;;;6.35;2.00;;;;;;;;;;5087769;28;20131;-69
2022/07/11 13:40:13;;;;;;;6.43;2.13;;;;;;;;;;5086034;28;20042;-70
2022/07/11 13:42:40;;;;;;;5.20;2.03;;;;;;;;;;5086885;28;20163;-69
2022/07/11 13:45:06;;;;;;;4.70;1.98;;;;;;;;;;5075041;28;20076;-70
2022/07/11 13:47:32;;;;;;;5.80;2.10;;;;;;;;;;5066756;28;20094;-70
2022/07/11 13:49:59;;;;;;;6.18;2.28;;;;;;;;;;5067108;28;20076;-70
2022/07/11 13:52:25;;;;;;;4.97;2.15;;;;;;;;;;5067353;28;20146;-71
2022/07/11 13:54:51;;;;;;;;;;;;;;;;;;5070440;28;20098;-70
2022/07/11 13:57:19;;;;;;;6.50;2.63;;;;;;;;;;5084798;28;20332;-68
2022/07/11 13:59:45;;;;;;;6.47;2.90;;;;;;;;;;5085022;28;20047;-69
2022/07/11 14:02:11;;;;;;;;;;;;;;;;;;5082469;28;20121;-70
2022/07/11 14:04:38;;;;;;;6.15;2.55;;;;;;;;;;5076365;28;19954;-69
2022/07/11 14:07:04;;;;;;;7.20;2.88;;;;;;;;;;5064072;28;20045;-70
2022/07/11 14:09:31;;;;;;;5.35;2.20;;;;;;;;;;5074816;28;20040;-69
2022/07/11 14:11:59;;;;;;;5.55;2.33;;;;;;;;;;5076847;28;20079;-71
2022/07/11 14:14:26;;;;;;;5.20;2.20;;;;;;;;;;5075122;28;20120;-75
2022/07/11 14:16:52;;;;;;;5.32;2.20;;;;;;;;;;5079570;28;20048;-70
2022/07/11 14:19:18;;;;;;;5.00;2.30;;;;;;;;;;5078531;28;20044;-69
2022/07/11 14:21:44;;;;;;;6.40;2.30;;;;;;;;;;5084580;28;20143;-70
2022/07/11 14:24:11;;;;;;;5.07;2.20;;;;;;;;;;5087020;28;20044;-69
2022/07/11 14:26:38;;;;;;;5.38;2.10;;;;;;;;;;5073566;28;20052;-70
2022/07/11 14:29:05;;;;;;;5.10;2.33;;;;;;;;;;5081272;28;20467;-70
2022/07/11 14:31:31;;;;;;;5.97;2.40;;;;;;;;;;5067056;28;20199;-71
2022/07/11 14:33:58;;;;;;;7.97;2.80;;;;;;;;;;5085689;28;20059;-69
2022/07/11 14:36:24;;;;;;;5.22;2.50;;;;;;;;;;5082855;28;20093;-71
2022/07/11 14:38:50;;;;;;;;;;;;;;;;;;5084876;28;20044;-69
2022/07/11 14:41:16;;;;;;;8.75;3.72;;;;;;;;;;5081826;28;19978;-70
2022/07/11 14:43:42;;;;;;;;;;;;;;;;;;5082582;28;20157;-69
2022/07/11 14:46:08;;;;;;;9.05;3.40;;;;;;;;;;5076734;28;20648;-70
2022/07/11 14:48:34;;;;;;;7.85;3.20;;;;;;;;;;5084213;28;20177;-71
2022/07/11 14:51:00;;;;;;;;;;;;;;;;;;5084956;28;20056;-71
2022/07/11 14:53:27;;;;;;;5.90;2.42;;;;;;;;;;5085837;28;19981;-71
2022/07/11 14:55:53;;;;;;;;;;;;;;;;;;5084688;28;20059;-70
2022/07/11 14:58:19;;;;;;;6.40;2.38;;;;;;;;;;5098993;28;20000;-70
2022/07/11 15:00:45;;;;;;;4.90;2.08;;;;;;;;;;5077165;28;20060;-71
2022/07/11 15:05:56;;;;;;;6.32;2.28;;;;;;;;;;5083016;28;20457;-70
2022/07/11 15:13:52;;;;;;;4.97;2.33;;;;;;;;;;5085478;28;20055;-70